sensor_id;sensor_type;location;lat;lon;timestamp;noise_LAeq;noise_LA_min;noise_LA_max;noise_LA01;noise_LA95
72858;Laerm;62742;52.136;4.500;2023-08-06T00:01:48;47.48;38.80;56.00;;
72858;Laerm;62742;52.136;4.500;2023-08-06T00:04:14;46.43;37.93;57.85;;
72858;Laerm;62742;52.136;4.500;2023-08-06T00:06:43;46.07;38.74;55.33;;
72858;Laerm;62742;52.136;4.500;2023-08-06T00:09:15;45.79;39.32;53.01;;
72858;Laerm;62742;52.136;4.500;2023-08-06T00:11:48;46.17;39.73;56.77;;
72858;Laerm;62742;52.136;4.500;2023-08-06T00:14:20;46.03;38.80;56.81;;
72858;Laerm;62742;52.136;4.500;2023-08-06T00:16:52;45.73;38.53;55.64;;
72858;Laerm;62742;52.136;4.500;2023-08-06T00:19:21;46.27;39.13;53.02;;
72858;Laerm;62742;52.136;4.500;2023-08-06T00:21:52;45.99;39.79;51.92;;
72858;Laerm;62742;52.136;4.500;2023-08-06T00:24:22;46.14;39.44;56.83;;
72858;Laerm;62742;52.136;4.500;2023-08-06T00:26:49;46.06;42.26;50.78;;
72858;Laerm;62742;52.136;4.500;2023-08-06T00:29:16;46.27;41.45;53.46;;
72858;Laerm;62742;52.136;4.500;2023-08-06T00:31:56;46.27;42.17;52.10;;
72858;Laerm;62742;52.136;4.500;2023-08-06T00:34:29;46.72;37.99;57.09;;
72858;Laerm;62742;52.136;4.500;2023-08-06T00:37:00;46.98;40.64;56.66;;
72858;Laerm;62742;52.136;4.500;2023-08-06T00:39:32;45.98;38.70;51.89;;
72858;Laerm;62742;52.136;4.500;2023-08-06T00:42:06;46.09;40.68;56.69;;
72858;Laerm;62742;52.136;4.500;2023-08-06T00:44:36;45.82;40.84;56.49;;
72858;Laerm;62742;52.136;4.500;2023-08-06T00:47:08;46.25;39.46;56.29;;
72858;Laerm;62742;52.136;4.500;2023-08-06T00:49:41;46.36;38.31;51.99;;
72858;Laerm;62742;52.136;4.500;2023-08-06T00:52:22;46.21;38.29;56.14;;
72858;Laerm;62742;52.136;4.500;2023-08-06T00:55:03;46.02;39.35;53.67;;
72858;Laerm;62742;52.136;4.500;2023-08-06T00:57:44;45.85;37.82;52.94;;
72858;Laerm;62742;52.136;4.500;2023-08-06T01:00:13;46.68;37.49;56.96;;
72858;Laerm;62742;52.136;4.500;2023-08-06T01:02:43;46.38;39.36;56.41;;
72858;Laerm;62742;52.136;4.500;2023-08-06T01:05:19;46.94;38.94;58.36;;
72858;Laerm;62742;52.136;4.500;2023-08-06T01:08:48;46.85;38.93;57.09;;
72858;Laerm;62742;52.136;4.500;2023-08-06T01:15:24;47.12;38.11;55.82;;
72858;Laerm;62742;52.136;4.500;2023-08-06T01:18:02;47.20;39.09;55.31;;
72858;Laerm;62742;52.136;4.500;2023-08-06T01:20:38;46.26;41.96;52.23;;
72858;Laerm;62742;52.136;4.500;2023-08-06T01:23:07;46.53;41.32;52.52;;
72858;Laerm;62742;52.136;4.500;2023-08-06T01:29:23;46.14;37.43;52.37;;
72858;Laerm;62742;52.136;4.500;2023-08-06T01:31:58;46.16;38.98;56.58;;
72858;Laerm;62742;52.136;4.500;2023-08-06T01:34:32;45.47;37.58;55.44;;
72858;Laerm;62742;52.136;4.500;2023-08-06T01:37:05;45.86;38.62;57.56;;
72858;Laerm;62742;52.136;4.500;2023-08-06T01:39:37;46.11;38.57;55.78;;
72858;Laerm;62742;52.136;4.500;2023-08-06T10:26:32;51.92;45.04;58.22;;
72858;Laerm;62742;52.136;4.500;2023-08-06T10:29:35;50.42;44.16;57.90;;
72858;Laerm;62742;52.136;4.500;2023-08-06T10:32:12;49.50;43.59;55.13;;
72858;Laerm;62742;52.136;4.500;2023-08-06T10:35:02;49.11;43.68;54.90;;
72858;Laerm;62742;52.136;4.500;2023-08-06T10:37:39;47.61;42.52;55.07;;
72858;Laerm;62742;52.136;4.500;2023-08-06T10:40:21;47.02;42.37;54.12;;
72858;Laerm;62742;52.136;4.500;2023-08-06T10:42:55;46.49;42.31;52.39;;
72858;Laerm;62742;52.136;4.500;2023-08-06T10:45:29;45.89;40.80;51.50;;
72858;Laerm;62742;52.136;4.500;2023-08-06T10:48:01;44.29;40.13;51.53;;
72858;Laerm;62742;52.136;4.500;2023-08-06T10:50:35;45.22;41.18;51.89;;
72858;Laerm;62742;52.136;4.500;2023-08-06T10:53:10;45.82;41.43;50.88;;
72858;Laerm;62742;52.136;4.500;2023-08-06T10:55:39;45.85;42.02;51.52;;
72858;Laerm;62742;52.136;4.500;2023-08-06T10:58:06;45.72;42.40;50.03;;
72858;Laerm;62742;52.136;4.500;2023-08-06T11:00:33;46.00;42.63;50.04;;
72858;Laerm;62742;52.136;4.500;2023-08-06T11:02:59;45.78;42.55;50.23;;
72858;Laerm;62742;52.136;4.500;2023-08-06T11:05:26;46.04;42.45;51.24;;
72858;Laerm;62742;52.136;4.500;2023-08-06T11:07:52;46.13;41.91;50.64;;
72858;Laerm;62742;52.136;4.500;2023-08-06T11:10:19;46.11;41.76;50.50;;
72858;Laerm;62742;52.136;4.500;2023-08-06T11:12:45;46.53;42.90;50.77;;
72858;Laerm;62742;52.136;4.500;2023-08-06T11:15:11;46.48;42.65;51.80;;
72858;Laerm;62742;52.136;4.500;2023-08-06T11:17:40;46.04;42.08;50.86;;
72858;Laerm;62742;52.136;4.500;2023-08-06T11:20:08;46.38;42.90;51.88;;
72858;Laerm;62742;52.136;4.500;2023-08-06T11:22:37;47.12;43.24;53.45;;
72858;Laerm;62742;52.136;4.500;2023-08-06T11:25:08;46.68;42.71;54.12;;
72858;Laerm;62742;52.136;4.500;2023-08-06T11:27:34;45.55;42.51;57.89;;
72858;Laerm;62742;52.136;4.500;2023-08-06T11:30:01;45.67;42.62;49.49;;
72858;Laerm;62742;52.136;4.500;2023-08-06T11:32:28;45.89;42.46;51.62;;
72858;Laerm;62742;52.136;4.500;2023-08-06T11:34:54;47.12;42.20;53.05;;
72858;Laerm;62742;52.136;4.500;2023-08-06T11:37:22;46.47;41.89;54.60;;
72858;Laerm;62742;52.136;4.500;2023-08-06T11:39:50;45.95;42.07;51.24;;
72858;Laerm;62742;52.136;4.500;2023-08-06T11:42:17;47.05;42.52;54.14;;
72858;Laerm;62742;52.136;4.500;2023-08-06T11:44:44;46.93;42.19;52.65;;
72858;Laerm;62742;52.136;4.500;2023-08-06T11:47:16;47.27;42.78;55.82;;
72858;Laerm;62742;52.136;4.500;2023-08-06T11:49:47;46.31;41.76;54.97;;
72858;Laerm;62742;52.136;4.500;2023-08-06T11:52:25;47.73;42.29;56.03;;
72858;Laerm;62742;52.136;4.500;2023-08-06T11:55:07;48.09;42.48;55.83;;
72858;Laerm;62742;52.136;4.500;2023-08-06T11:57:38;47.39;43.20;54.23;;
72858;Laerm;62742;52.136;4.500;2023-08-06T12:00:14;46.78;42.43;53.12;;
72858;Laerm;62742;52.136;4.500;2023-08-06T12:02:43;46.42;42.12;58.44;;
72858;Laerm;62742;52.136;4.500;2023-08-06T12:05:28;45.57;42.09;49.50;;
72858;Laerm;62742;52.136;4.500;2023-08-06T12:07:57;45.46;42.12;51.26;;
72858;Laerm;62742;52.136;4.500;2023-08-06T12:10:26;46.23;41.53;53.64;;
72858;Laerm;62742;52.136;4.500;2023-08-06T12:12:54;45.55;41.55;51.08;;
72858;Laerm;62742;52.136;4.500;2023-08-06T12:15:23;45.02;41.49;52.46;;
72858;Laerm;62742;52.136;4.500;2023-08-06T12:17:50;45.04;41.51;52.41;;
72858;Laerm;62742;52.136;4.500;2023-08-06T12:20:17;45.20;41.75;51.56;;
72858;Laerm;62742;52.136;4.500;2023-08-06T12:22:43;45.16;41.62;50.26;;
72858;Laerm;62742;52.136;4.500;2023-08-06T12:25:12;45.11;41.33;51.09;;
72858;Laerm;62742;52.136;4.500;2023-08-06T12:27:42;45.58;41.59;51.34;;
72858;Laerm;62742;52.136;4.500;2023-08-06T12:30:10;45.59;41.03;51.93;;
72858;Laerm;62742;52.136;4.500;2023-08-06T12:32:37;45.44;41.18;51.41;;
72858;Laerm;62742;52.136;4.500;2023-08-06T12:35:05;45.19;41.37;51.18;;
72858;Laerm;62742;52.136;4.500;2023-08-06T12:37:35;45.05;40.81;52.56;;
72858;Laerm;62742;52.136;4.500;2023-08-06T12:40:02;44.43;39.83;50.11;;
72858;Laerm;62742;52.136;4.500;2023-08-06T12:42:29;45.73;42.09;52.47;;
72858;Laerm;62742;52.136;4.500;2023-08-06T12:44:55;45.57;41.64;52.66;;
72858;Laerm;62742;52.136;4.500;2023-08-06T12:47:23;45.49;41.67;52.39;;
72858;Laerm;62742;52.136;4.500;2023-08-06T12:49:50;45.17;41.93;51.04;;
72858;Laerm;62742;52.136;4.500;2023-08-06T12:52:16;45.32;41.71;51.59;;
72858;Laerm;62742;52.136;4.500;2023-08-06T12:54:46;45.53;42.03;54.66;;
72858;Laerm;62742;52.136;4.500;2023-08-06T12:57:12;44.96;41.42;50.67;;
72858;Laerm;62742;52.136;4.500;2023-08-06T12:59:38;45.55;41.11;53.48;;
72858;Laerm;62742;52.136;4.500;2023-08-06T13:02:06;45.09;41.16;54.68;;
72858;Laerm;62742;52.136;4.500;2023-08-06T13:04:33;45.29;42.10;53.31;;
72858;Laerm;62742;52.136;4.500;2023-08-06T13:07:00;45.21;41.85;52.12;;
72858;Laerm;62742;52.136;4.500;2023-08-06T13:09:27;45.04;41.59;52.81;;
72858;Laerm;62742;52.136;4.500;2023-08-06T13:11:54;45.48;41.56;51.26;;
72858;Laerm;62742;52.136;4.500;2023-08-06T13:14:20;45.24;41.74;49.68;;
72858;Laerm;62742;52.136;4.500;2023-08-06T13:17:09;45.28;41.51;53.03;;
72858;Laerm;62742;52.136;4.500;2023-08-06T13:19:50;45.54;41.14;53.58;;
72858;Laerm;62742;52.136;4.500;2023-08-06T13:22:19;45.83;41.49;62.42;;
72858;Laerm;62742;52.136;4.500;2023-08-06T13:24:47;47.27;41.28;62.20;;
72858;Laerm;62742;52.136;4.500;2023-08-06T13:27:16;44.46;40.83;49.77;;
72858;Laerm;62742;52.136;4.500;2023-08-06T13:29:43;44.31;40.81;49.93;;
72858;Laerm;62742;52.136;4.500;2023-08-06T13:32:12;44.39;40.83;50.51;;
72858;Laerm;62742;52.136;4.500;2023-08-06T13:34:43;44.25;41.05;49.00;;
72858;Laerm;62742;52.136;4.500;2023-08-06T13:37:13;44.56;41.22;49.74;;
72858;Laerm;62742;52.136;4.500;2023-08-06T13:39:40;44.45;41.12;49.20;;
72858;Laerm;62742;52.136;4.500;2023-08-06T13:42:09;44.53;40.73;49.37;;
72858;Laerm;62742;52.136;4.500;2023-08-06T13:44:36;43.93;40.52;47.57;;
72858;Laerm;62742;52.136;4.500;2023-08-06T13:47:03;43.77;40.76;49.64;;
72858;Laerm;62742;52.136;4.500;2023-08-06T13:49:34;44.07;40.95;49.69;;
72858;Laerm;62742;52.136;4.500;2023-08-06T13:52:08;45.30;41.41;51.04;;
72858;Laerm;62742;52.136;4.500;2023-08-06T13:54:37;45.66;41.76;50.52;;
72858;Laerm;62742;52.136;4.500;2023-08-06T13:57:04;45.28;41.96;50.18;;
72858;Laerm;62742;52.136;4.500;2023-08-06T13:59:30;45.23;41.93;50.92;;
72858;Laerm;62742;52.136;4.500;2023-08-06T14:01:58;45.42;41.18;50.21;;
72858;Laerm;62742;52.136;4.500;2023-08-06T14:04:27;45.73;41.93;50.89;;
72858;Laerm;62742;52.136;4.500;2023-08-06T14:06:54;45.15;40.35;50.32;;
72858;Laerm;62742;52.136;4.500;2023-08-06T14:09:20;45.06;40.40;50.13;;
72858;Laerm;62742;52.136;4.500;2023-08-06T14:11:50;45.61;40.75;49.99;;
72858;Laerm;62742;52.136;4.500;2023-08-06T14:14:18;45.35;40.54;50.22;;
72858;Laerm;62742;52.136;4.500;2023-08-06T14:16:44;44.67;40.47;50.01;;
72858;Laerm;62742;52.136;4.500;2023-08-06T14:19:12;44.43;40.24;51.49;;
72858;Laerm;62742;52.136;4.500;2023-08-06T14:21:39;45.35;40.39;50.09;;
72858;Laerm;62742;52.136;4.500;2023-08-06T14:24:05;45.04;40.67;51.23;;
72858;Laerm;62742;52.136;4.500;2023-08-06T14:26:32;44.99;40.71;50.74;;
72858;Laerm;62742;52.136;4.500;2023-08-06T14:29:04;45.17;41.06;50.65;;
72858;Laerm;62742;52.136;4.500;2023-08-06T14:31:32;45.90;41.31;51.10;;
72858;Laerm;62742;52.136;4.500;2023-08-06T14:34:10;45.45;40.87;50.16;;
72858;Laerm;62742;52.136;4.500;2023-08-06T14:36:40;45.27;41.08;51.25;;
72858;Laerm;62742;52.136;4.500;2023-08-06T14:39:07;45.91;41.83;51.58;;
72858;Laerm;62742;52.136;4.500;2023-08-06T14:41:35;45.00;40.67;49.55;;
72858;Laerm;62742;52.136;4.500;2023-08-06T14:44:03;44.73;41.38;48.89;;
72858;Laerm;62742;52.136;4.500;2023-08-06T14:46:30;45.08;41.21;51.78;;
72858;Laerm;62742;52.136;4.500;2023-08-06T14:48:56;46.07;41.18;51.86;;
72858;Laerm;62742;52.136;4.500;2023-08-06T14:51:25;46.13;41.69;52.10;;
72858;Laerm;62742;52.136;4.500;2023-08-06T14:53:52;46.36;42.04;52.38;;
72858;Laerm;62742;52.136;4.500;2023-08-06T14:56:19;46.14;41.66;52.66;;
72858;Laerm;62742;52.136;4.500;2023-08-06T14:58:57;46.47;42.09;51.87;;
72858;Laerm;62742;52.136;4.500;2023-08-06T15:01:25;46.17;42.01;52.33;;
72858;Laerm;62742;52.136;4.500;2023-08-06T15:03:52;46.46;41.46;52.77;;
72858;Laerm;62742;52.136;4.500;2023-08-06T15:06:21;46.71;42.90;53.11;;
72858;Laerm;62742;52.136;4.500;2023-08-06T15:08:48;46.37;42.89;52.80;;
72858;Laerm;62742;52.136;4.500;2023-08-06T15:11:14;45.58;41.73;52.30;;
72858;Laerm;62742;52.136;4.500;2023-08-06T15:13:44;45.95;42.11;53.62;;
72858;Laerm;62742;52.136;4.500;2023-08-06T15:16:13;46.21;43.03;52.38;;
72858;Laerm;62742;52.136;4.500;2023-08-06T15:18:39;46.47;41.67;54.66;;
72858;Laerm;62742;52.136;4.500;2023-08-06T15:21:06;46.58;43.15;54.81;;
72858;Laerm;62742;52.136;4.500;2023-08-06T15:23:36;46.63;42.61;54.91;;
72858;Laerm;62742;52.136;4.500;2023-08-06T15:26:03;46.42;42.72;52.61;;
72858;Laerm;62742;52.136;4.500;2023-08-06T15:28:30;46.09;41.57;51.53;;
72858;Laerm;62742;52.136;4.500;2023-08-06T15:30:57;46.27;41.36;50.39;;
72858;Laerm;62742;52.136;4.500;2023-08-06T15:33:26;46.24;41.82;51.85;;
72858;Laerm;62742;52.136;4.500;2023-08-06T15:35:53;46.31;41.98;52.55;;
72858;Laerm;62742;52.136;4.500;2023-08-06T15:38:20;45.98;41.62;50.55;;
72858;Laerm;62742;52.136;4.500;2023-08-06T15:40:48;46.77;42.44;50.73;;
72858;Laerm;62742;52.136;4.500;2023-08-06T15:43:16;46.91;42.28;50.58;;
72858;Laerm;62742;52.136;4.500;2023-08-06T15:45:42;46.63;41.56;50.28;;
72858;Laerm;62742;52.136;4.500;2023-08-06T15:48:09;46.96;42.34;54.89;;
72858;Laerm;62742;52.136;4.500;2023-08-06T15:50:39;46.37;42.18;50.29;;
72858;Laerm;62742;52.136;4.500;2023-08-06T15:53:06;46.30;42.09;49.96;;
72858;Laerm;62742;52.136;4.500;2023-08-06T15:55:33;46.76;41.68;50.58;;
72858;Laerm;62742;52.136;4.500;2023-08-06T15:58:03;46.69;42.66;50.95;;
72858;Laerm;62742;52.136;4.500;2023-08-06T16:00:31;46.89;42.64;50.70;;
72858;Laerm;62742;52.136;4.500;2023-08-06T16:02:57;46.97;41.76;51.14;;
72858;Laerm;62742;52.136;4.500;2023-08-06T16:05:25;46.86;42.39;51.50;;
72858;Laerm;62742;52.136;4.500;2023-08-06T16:07:52;47.40;42.69;50.98;;
72858;Laerm;62742;52.136;4.500;2023-08-06T16:10:18;47.32;43.01;51.06;;
72858;Laerm;62742;52.136;4.500;2023-08-06T16:12:45;47.45;43.51;55.90;;
72858;Laerm;62742;52.136;4.500;2023-08-06T16:15:11;47.21;43.48;51.28;;
72858;Laerm;62742;52.136;4.500;2023-08-06T16:17:39;47.43;43.69;51.88;;
72858;Laerm;62742;52.136;4.500;2023-08-06T16:20:06;48.37;42.64;54.20;;
72858;Laerm;62742;52.136;4.500;2023-08-06T16:22:33;48.23;42.66;56.98;;
72858;Laerm;62742;52.136;4.500;2023-08-06T16:24:59;47.59;44.28;51.31;;
72858;Laerm;62742;52.136;4.500;2023-08-06T16:27:26;47.56;43.04;54.08;;
72858;Laerm;62742;52.136;4.500;2023-08-06T16:29:52;47.78;44.12;52.97;;
72858;Laerm;62742;52.136;4.500;2023-08-06T16:32:19;47.80;43.31;52.71;;
72858;Laerm;62742;52.136;4.500;2023-08-06T16:34:47;46.56;43.17;53.34;;
72858;Laerm;62742;52.136;4.500;2023-08-06T16:37:15;45.88;42.88;53.78;;
72858;Laerm;62742;52.136;4.500;2023-08-06T16:39:44;46.13;43.25;51.42;;
72858;Laerm;62742;52.136;4.500;2023-08-06T16:42:11;45.71;42.76;50.37;;
72858;Laerm;62742;52.136;4.500;2023-08-06T16:44:38;44.96;41.99;49.87;;
72858;Laerm;62742;52.136;4.500;2023-08-06T16:47:06;45.13;42.24;50.68;;
72858;Laerm;62742;52.136;4.500;2023-08-06T16:49:33;45.86;43.16;52.60;;
72858;Laerm;62742;52.136;4.500;2023-08-06T16:52:02;44.75;41.35;48.53;;
72858;Laerm;62742;52.136;4.500;2023-08-06T16:54:28;43.94;40.80;47.21;;
72858;Laerm;62742;52.136;4.500;2023-08-06T16:56:56;45.10;41.38;52.03;;
72858;Laerm;62742;52.136;4.500;2023-08-06T16:59:25;44.79;41.46;53.05;;
72858;Laerm;62742;52.136;4.500;2023-08-06T17:01:51;44.62;41.51;51.19;;
72858;Laerm;62742;52.136;4.500;2023-08-06T17:04:18;44.39;41.37;47.95;;
72858;Laerm;62742;52.136;4.500;2023-08-06T17:06:44;45.91;42.04;51.19;;
72858;Laerm;62742;52.136;4.500;2023-08-06T17:09:13;45.90;42.12;50.81;;
72858;Laerm;62742;52.136;4.500;2023-08-06T17:11:39;45.34;41.76;51.27;;
72858;Laerm;62742;52.136;4.500;2023-08-06T17:14:06;44.92;40.84;51.98;;
72858;Laerm;62742;52.136;4.500;2023-08-06T17:16:32;44.55;40.38;49.14;;
72858;Laerm;62742;52.136;4.500;2023-08-06T17:18:59;44.79;41.72;48.91;;
72858;Laerm;62742;52.136;4.500;2023-08-06T17:21:25;44.78;41.51;50.25;;
72858;Laerm;62742;52.136;4.500;2023-08-06T17:23:52;44.84;41.78;52.38;;
72858;Laerm;62742;52.136;4.500;2023-08-06T17:26:18;44.40;40.82;48.45;;
72858;Laerm;62742;52.136;4.500;2023-08-06T17:28:44;45.10;42.12;49.67;;
72858;Laerm;62742;52.136;4.500;2023-08-06T17:31:14;45.41;42.21;48.88;;
72858;Laerm;62742;52.136;4.500;2023-08-06T17:33:42;45.15;41.79;50.11;;
72858;Laerm;62742;52.136;4.500;2023-08-06T17:36:10;45.27;42.69;49.44;;
72858;Laerm;62742;52.136;4.500;2023-08-06T17:38:37;45.13;42.44;50.91;;
72858;Laerm;62742;52.136;4.500;2023-08-06T17:41:03;45.58;42.23;49.87;;
72858;Laerm;62742;52.136;4.500;2023-08-06T17:43:33;44.68;40.59;48.90;;
72858;Laerm;62742;52.136;4.500;2023-08-06T17:45:59;45.09;41.96;49.11;;
72858;Laerm;62742;52.136;4.500;2023-08-06T17:48:30;45.18;41.20;50.06;;
72858;Laerm;62742;52.136;4.500;2023-08-06T17:51:01;45.32;42.14;50.15;;
72858;Laerm;62742;52.136;4.500;2023-08-06T17:53:37;45.77;42.96;51.56;;
72858;Laerm;62742;52.136;4.500;2023-08-06T17:56:17;46.04;42.70;50.09;;
72858;Laerm;62742;52.136;4.500;2023-08-06T17:58:48;46.03;42.60;51.90;;
72858;Laerm;62742;52.136;4.500;2023-08-06T18:01:18;45.54;42.49;50.93;;
72858;Laerm;62742;52.136;4.500;2023-08-06T18:03:44;46.33;42.68;52.45;;
72858;Laerm;62742;52.136;4.500;2023-08-06T18:06:16;45.61;42.59;50.06;;
72858;Laerm;62742;52.136;4.500;2023-08-06T18:08:43;45.71;42.30;50.74;;
72858;Laerm;62742;52.136;4.500;2023-08-06T18:11:10;45.23;41.63;50.09;;
72858;Laerm;62742;52.136;4.500;2023-08-06T18:13:37;45.45;42.33;50.68;;
72858;Laerm;62742;52.136;4.500;2023-08-06T18:16:04;45.49;41.59;52.98;;
72858;Laerm;62742;52.136;4.500;2023-08-06T18:18:31;45.52;42.48;49.53;;
72858;Laerm;62742;52.136;4.500;2023-08-06T18:20:57;45.43;42.43;50.56;;
72858;Laerm;62742;52.136;4.500;2023-08-06T18:23:25;45.49;42.28;49.94;;
72858;Laerm;62742;52.136;4.500;2023-08-06T18:25:52;45.90;42.93;53.43;;
72858;Laerm;62742;52.136;4.500;2023-08-06T18:28:25;45.24;41.82;51.07;;
72858;Laerm;62742;52.136;4.500;2023-08-06T18:30:55;44.97;42.26;49.13;;
72858;Laerm;62742;52.136;4.500;2023-08-06T18:33:23;44.89;41.86;50.64;;
72858;Laerm;62742;52.136;4.500;2023-08-06T18:35:53;45.38;42.04;50.86;;
72858;Laerm;62742;52.136;4.500;2023-08-06T18:38:26;45.23;40.58;51.95;;
72858;Laerm;62742;52.136;4.500;2023-08-06T18:41:02;45.53;42.14;51.42;;
72858;Laerm;62742;52.136;4.500;2023-08-06T18:43:29;45.52;42.41;49.00;;
72858;Laerm;62742;52.136;4.500;2023-08-06T18:45:57;45.88;43.12;49.21;;
72858;Laerm;62742;52.136;4.500;2023-08-06T18:48:30;45.59;42.81;50.04;;
72858;Laerm;62742;52.136;4.500;2023-08-06T18:51:10;45.37;41.76;49.21;;
72858;Laerm;62742;52.136;4.500;2023-08-06T18:53:54;44.83;42.08;48.98;;
72858;Laerm;62742;52.136;4.500;2023-08-06T18:56:23;45.25;42.74;51.23;;
72858;Laerm;62742;52.136;4.500;2023-08-06T18:58:51;45.05;40.06;50.26;;
72858;Laerm;62742;52.136;4.500;2023-08-06T19:01:17;44.94;40.96;50.56;;
72858;Laerm;62742;52.136;4.500;2023-08-06T19:03:47;45.30;42.22;48.03;;
72858;Laerm;62742;52.136;4.500;2023-08-06T19:06:15;45.31;42.21;50.27;;
72858;Laerm;62742;52.136;4.500;2023-08-06T19:08:42;45.69;42.50;51.54;;
72858;Laerm;62742;52.136;4.500;2023-08-06T19:11:09;45.56;42.51;50.02;;
72858;Laerm;62742;52.136;4.500;2023-08-06T19:13:35;45.31;42.22;50.74;;
72858;Laerm;62742;52.136;4.500;2023-08-06T19:16:02;45.17;42.36;50.65;;
72858;Laerm;62742;52.136;4.500;2023-08-06T19:18:28;45.72;41.82;53.44;;
72858;Laerm;62742;52.136;4.500;2023-08-06T19:20:55;44.94;41.60;51.12;;
72858;Laerm;62742;52.136;4.500;2023-08-06T19:23:25;46.51;42.33;53.70;;
72858;Laerm;62742;52.136;4.500;2023-08-06T19:25:54;45.42;42.27;51.11;;
72858;Laerm;62742;52.136;4.500;2023-08-06T19:28:21;45.62;41.33;52.59;;
72858;Laerm;62742;52.136;4.500;2023-08-06T19:30:48;44.92;41.45;52.83;;
72858;Laerm;62742;52.136;4.500;2023-08-06T19:33:15;44.85;41.76;49.26;;
72858;Laerm;62742;52.136;4.500;2023-08-06T19:35:51;45.95;41.61;53.29;;
72858;Laerm;62742;52.136;4.500;2023-08-06T19:38:21;45.91;42.44;51.62;;
72858;Laerm;62742;52.136;4.500;2023-08-06T19:40:48;45.83;42.90;52.74;;
72858;Laerm;62742;52.136;4.500;2023-08-06T19:43:17;45.76;42.23;52.50;;
72858;Laerm;62742;52.136;4.500;2023-08-06T19:45:50;45.45;41.95;53.06;;
72858;Laerm;62742;52.136;4.500;2023-08-06T19:48:18;45.50;42.49;52.33;;
72858;Laerm;62742;52.136;4.500;2023-08-06T19:50:55;45.15;42.42;50.51;;
72858;Laerm;62742;52.136;4.500;2023-08-06T19:53:31;44.97;42.04;49.54;;
72858;Laerm;62742;52.136;4.500;2023-08-06T19:56:06;45.99;42.77;54.55;;
72858;Laerm;62742;52.136;4.500;2023-08-06T19:58:33;45.83;42.38;53.79;;
72858;Laerm;62742;52.136;4.500;2023-08-06T20:01:02;46.21;41.21;54.02;;
72858;Laerm;62742;52.136;4.500;2023-08-06T20:03:33;45.30;41.71;52.58;;
72858;Laerm;62742;52.136;4.500;2023-08-06T20:06:04;46.15;42.89;52.95;;
72858;Laerm;62742;52.136;4.500;2023-08-06T20:08:33;45.04;41.65;51.46;;
72858;Laerm;62742;52.136;4.500;2023-08-06T20:11:02;46.14;42.24;50.65;;
72858;Laerm;62742;52.136;4.500;2023-08-06T20:13:29;46.46;42.87;50.99;;
72858;Laerm;62742;52.136;4.500;2023-08-06T20:15:56;47.91;42.91;55.91;;
72858;Laerm;62742;52.136;4.500;2023-08-06T20:18:22;49.75;43.49;59.16;;
72858;Laerm;62742;52.136;4.500;2023-08-06T20:20:55;47.38;43.07;55.50;;
72858;Laerm;62742;52.136;4.500;2023-08-06T20:23:24;45.96;40.53;50.44;;
72858;Laerm;62742;52.136;4.500;2023-08-06T20:25:51;46.97;42.54;54.16;;
72858;Laerm;62742;52.136;4.500;2023-08-06T20:28:17;47.25;43.87;51.63;;
72858;Laerm;62742;52.136;4.500;2023-08-06T20:30:44;45.64;41.94;49.75;;
72858;Laerm;62742;52.136;4.500;2023-08-06T20:33:11;47.29;42.80;51.24;;
72858;Laerm;62742;52.136;4.500;2023-08-06T20:35:40;45.81;40.85;52.21;;
72858;Laerm;62742;52.136;4.500;2023-08-06T20:38:08;47.43;43.95;51.85;;
72858;Laerm;62742;52.136;4.500;2023-08-06T20:40:38;47.65;43.98;52.47;;
72858;Laerm;62742;52.136;4.500;2023-08-06T20:43:06;47.73;44.11;53.88;;
72858;Laerm;62742;52.136;4.500;2023-08-06T20:45:32;48.03;43.85;56.49;;
72858;Laerm;62742;52.136;4.500;2023-08-06T20:48:00;48.34;43.37;55.51;;
72858;Laerm;62742;52.136;4.500;2023-08-06T20:50:27;47.74;43.86;55.01;;
72858;Laerm;62742;52.136;4.500;2023-08-06T20:52:53;46.82;43.37;53.71;;
72858;Laerm;62742;52.136;4.500;2023-08-06T20:55:26;46.75;43.41;52.57;;
72858;Laerm;62742;52.136;4.500;2023-08-06T20:57:53;47.36;43.39;55.78;;
72858;Laerm;62742;52.136;4.500;2023-08-06T21:00:20;47.81;43.31;56.34;;
72858;Laerm;62742;52.136;4.500;2023-08-06T21:02:47;47.52;43.25;54.99;;
72858;Laerm;62742;52.136;4.500;2023-08-06T21:05:13;47.27;42.70;53.56;;
72858;Laerm;62742;52.136;4.500;2023-08-06T21:07:41;48.66;43.35;56.70;;
72858;Laerm;62742;52.136;4.500;2023-08-06T21:10:08;49.22;42.74;57.03;;
72858;Laerm;62742;52.136;4.500;2023-08-06T21:12:34;47.57;42.96;54.74;;
72858;Laerm;62742;52.136;4.500;2023-08-06T21:15:01;48.49;43.66;55.56;;
72858;Laerm;62742;52.136;4.500;2023-08-06T21:17:27;46.96;42.59;51.48;;
72858;Laerm;62742;52.136;4.500;2023-08-06T21:19:54;47.48;43.17;52.56;;
72858;Laerm;62742;52.136;4.500;2023-08-06T21:22:21;48.92;43.88;52.95;;
72858;Laerm;62742;52.136;4.500;2023-08-06T21:24:49;49.01;44.45;53.17;;
72858;Laerm;62742;52.136;4.500;2023-08-06T21:27:17;49.84;44.00;54.04;;
72858;Laerm;62742;52.136;4.500;2023-08-06T21:29:43;49.51;44.30;53.42;;
72858;Laerm;62742;52.136;4.500;2023-08-06T21:32:10;49.27;42.41;51.89;;
72858;Laerm;62742;52.136;4.500;2023-08-06T21:34:37;48.94;44.19;55.43;;
72858;Laerm;62742;52.136;4.500;2023-08-06T21:37:04;48.66;43.69;54.98;;
72858;Laerm;62742;52.136;4.500;2023-08-06T21:39:30;48.98;43.90;54.25;;
72858;Laerm;62742;52.136;4.500;2023-08-06T21:41:57;48.72;43.87;55.01;;
72858;Laerm;62742;52.136;4.500;2023-08-06T21:44:23;47.74;41.89;52.47;;
72858;Laerm;62742;52.136;4.500;2023-08-06T21:46:50;48.91;43.28;55.50;;
72858;Laerm;62742;52.136;4.500;2023-08-06T21:49:17;47.85;42.87;55.07;;
72858;Laerm;62742;52.136;4.500;2023-08-06T21:51:45;47.49;43.36;54.26;;
72858;Laerm;62742;52.136;4.500;2023-08-06T21:54:11;47.74;42.61;52.65;;
72858;Laerm;62742;52.136;4.500;2023-08-06T21:56:43;48.30;43.17;54.50;;
72858;Laerm;62742;52.136;4.500;2023-08-06T21:59:09;47.84;43.14;52.62;;
72858;Laerm;62742;52.136;4.500;2023-08-06T22:01:36;47.70;43.16;54.61;;
72858;Laerm;62742;52.136;4.500;2023-08-06T22:04:03;48.44;43.23;53.48;;
72858;Laerm;62742;52.136;4.500;2023-08-06T22:06:29;47.53;42.97;54.58;;
72858;Laerm;62742;52.136;4.500;2023-08-06T22:08:55;47.77;41.59;52.06;;
72858;Laerm;62742;52.136;4.500;2023-08-06T22:11:22;48.70;43.00;53.96;;
72858;Laerm;62742;52.136;4.500;2023-08-06T22:13:48;48.39;42.53;54.51;;
72858;Laerm;62742;52.136;4.500;2023-08-06T22:16:15;48.17;43.42;54.66;;
72858;Laerm;62742;52.136;4.500;2023-08-06T22:18:41;47.74;42.95;53.73;;
72858;Laerm;62742;52.136;4.500;2023-08-06T22:21:07;48.38;43.92;55.62;;
72858;Laerm;62742;52.136;4.500;2023-08-06T22:23:35;48.50;43.76;54.24;;
72858;Laerm;62742;52.136;4.500;2023-08-06T22:26:01;48.07;43.24;51.62;;
72858;Laerm;62742;52.136;4.500;2023-08-06T22:28:28;48.33;43.66;55.51;;
72858;Laerm;62742;52.136;4.500;2023-08-06T22:30:54;48.66;43.86;55.39;;
72858;Laerm;62742;52.136;4.500;2023-08-06T22:33:21;49.32;43.58;56.39;;
72858;Laerm;62742;52.136;4.500;2023-08-06T22:35:48;48.59;43.16;55.86;;
72858;Laerm;62742;52.136;4.500;2023-08-06T22:38:16;48.37;43.75;56.47;;
72858;Laerm;62742;52.136;4.500;2023-08-06T22:40:46;48.28;43.25;55.19;;
72858;Laerm;62742;52.136;4.500;2023-08-06T22:43:12;47.10;42.34;52.28;;
72858;Laerm;62742;52.136;4.500;2023-08-06T22:45:39;47.38;42.44;54.34;;
72858;Laerm;62742;52.136;4.500;2023-08-06T22:48:05;46.29;41.39;49.92;;